sensor_id;sensor_type;location;lat;lon;timestamp;temperature;humidity
6954;DHT22;3516;47.980;8.808;2024-02-14T06:23:24;1.50;99.90
6954;DHT22;3516;47.980;8.808;2024-02-14T06:25:51;1.50;99.90
6954;DHT22;3516;47.980;8.808;2024-02-14T06:28:18;1.60;99.90
6954;DHT22;3516;47.980;8.808;2024-02-14T06:30:45;1.60;99.90
6954;DHT22;3516;47.980;8.808;2024-02-14T06:33:11;1.70;99.90
6954;DHT22;3516;47.980;8.808;2024-02-14T06:35:38;1.70;99.90
6954;DHT22;3516;47.980;8.808;2024-02-14T06:38:04;1.70;99.90
6954;DHT22;3516;47.980;8.808;2024-02-14T06:40:33;1.80;99.90
6954;DHT22;3516;47.980;8.808;2024-02-14T06:42:59;1.90;99.90
6954;DHT22;3516;47.980;8.808;2024-02-14T06:45:26;2.00;99.90
6954;DHT22;3516;47.980;8.808;2024-02-14T06:47:53;2.00;99.90
6954;DHT22;3516;47.980;8.808;2024-02-14T06:50:19;2.10;99.90
6954;DHT22;3516;47.980;8.808;2024-02-14T06:52:46;2.10;99.90
6954;DHT22;3516;47.980;8.808;2024-02-14T06:55:13;2.20;99.90
6954;DHT22;3516;47.980;8.808;2024-02-14T06:57:41;2.20;99.90
6954;DHT22;3516;47.980;8.808;2024-02-14T07:00:07;2.30;99.90
6954;DHT22;3516;47.980;8.808;2024-02-14T07:02:34;2.30;99.90
6954;DHT22;3516;47.980;8.808;2024-02-14T07:05:01;2.30;99.90
6954;DHT22;3516;47.980;8.808;2024-02-14T07:07:28;2.40;99.90
6954;DHT22;3516;47.980;8.808;2024-02-14T07:09:54;2.40;99.90
6954;DHT22;3516;47.980;8.808;2024-02-14T07:12:21;2.50;99.90
6954;DHT22;3516;47.980;8.808;2024-02-14T07:14:49;2.50;99.90
6954;DHT22;3516;47.980;8.808;2024-02-14T07:17:15;2.60;99.90
6954;DHT22;3516;47.980;8.808;2024-02-14T07:19:42;2.70;99.90
6954;DHT22;3516;47.980;8.808;2024-02-14T07:22:13;2.80;99.90
6954;DHT22;3516;47.980;8.808;2024-02-14T07:24:41;2.80;99.90
6954;DHT22;3516;47.980;8.808;2024-02-14T07:27:08;2.80;99.90
6954;DHT22;3516;47.980;8.808;2024-02-14T07:29:34;2.70;99.90
6954;DHT22;3516;47.980;8.808;2024-02-14T07:32:03;2.80;99.90
6954;DHT22;3516;47.980;8.808;2024-02-14T07:34:31;2.80;99.90
6954;DHT22;3516;47.980;8.808;2024-02-14T07:36:58;3.00;99.90
6954;DHT22;3516;47.980;8.808;2024-02-14T07:39:25;3.20;99.90
6954;DHT22;3516;47.980;8.808;2024-02-14T07:41:52;4.00;99.90
6954;DHT22;3516;47.980;8.808;2024-02-14T07:44:19;5.00;99.90
6954;DHT22;3516;47.980;8.808;2024-02-14T07:46:45;6.30;99.90
6954;DHT22;3516;47.980;8.808;2024-02-14T07:49:13;7.10;99.90
6954;DHT22;3516;47.980;8.808;2024-02-14T07:51:40;7.40;99.90
6954;DHT22;3516;47.980;8.808;2024-02-14T07:54:07;7.70;99.90
6954;DHT22;3516;47.980;8.808;2024-02-14T07:56:34;7.70;99.90
6954;DHT22;3516;47.980;8.808;2024-02-14T07:59:00;7.40;99.90
6954;DHT22;3516;47.980;8.808;2024-02-14T08:01:27;7.30;99.90
6954;DHT22;3516;47.980;8.808;2024-02-14T08:03:53;7.10;99.90
6954;DHT22;3516;47.980;8.808;2024-02-14T08:06:22;7.00;99.90
6954;DHT22;3516;47.980;8.808;2024-02-14T08:08:48;7.00;99.90
6954;DHT22;3516;47.980;8.808;2024-02-14T08:11:17;7.30;99.90
6954;DHT22;3516;47.980;8.808;2024-02-14T08:13:44;8.00;99.90
6954;DHT22;3516;47.980;8.808;2024-02-14T08:16:10;8.70;99.90
6954;DHT22;3516;47.980;8.808;2024-02-14T08:18:37;9.20;99.90
6954;DHT22;3516;47.980;8.808;2024-02-14T08:21:05;9.60;99.90
6954;DHT22;3516;47.980;8.808;2024-02-14T08:23:32;10.10;99.90
6954;DHT22;3516;47.980;8.808;2024-02-14T08:26:00;10.50;99.90
6954;DHT22;3516;47.980;8.808;2024-02-14T08:28:26;10.90;99.90
6954;DHT22;3516;47.980;8.808;2024-02-14T08:30:53;11.20;99.90
6954;DHT22;3516;47.980;8.808;2024-02-14T08:33:20;11.40;99.90
6954;DHT22;3516;47.980;8.808;2024-02-14T08:35:46;11.70;99.90
6954;DHT22;3516;47.980;8.808;2024-02-14T08:38:13;11.90;99.90
6954;DHT22;3516;47.980;8.808;2024-02-14T08:40:41;12.20;99.90
6954;DHT22;3516;47.980;8.808;2024-02-14T08:43:07;12.60;99.90
6954;DHT22;3516;47.980;8.808;2024-02-14T08:45:34;12.80;99.90
6954;DHT22;3516;47.980;8.808;2024-02-14T08:48:01;12.50;99.90
6954;DHT22;3516;47.980;8.808;2024-02-14T08:50:28;12.30;99.90
6954;DHT22;3516;47.980;8.808;2024-02-14T08:52:55;12.10;99.90
6954;DHT22;3516;47.980;8.808;2024-02-14T08:55:22;11.80;99.90
6954;DHT22;3516;47.980;8.808;2024-02-14T08:57:50;11.70;99.90
6954;DHT22;3516;47.980;8.808;2024-02-14T09:00:17;11.40;99.90
6954;DHT22;3516;47.980;8.808;2024-02-14T09:02:45;11.20;99.90
6954;DHT22;3516;47.980;8.808;2024-02-14T09:05:12;10.80;99.90
6954;DHT22;3516;47.980;8.808;2024-02-14T09:07:38;10.60;99.90
6954;DHT22;3516;47.980;8.808;2024-02-14T09:10:07;10.50;99.90
6954;DHT22;3516;47.980;8.808;2024-02-14T09:12:35;10.50;99.90
6954;DHT22;3516;47.980;8.808;2024-02-14T09:15:04;10.40;99.90
6954;DHT22;3516;47.980;8.808;2024-02-14T09:17:31;10.20;99.90
6954;DHT22;3516;47.980;8.808;2024-02-14T09:19:57;9.90;99.90
6954;DHT22;3516;47.980;8.808;2024-02-14T09:22:24;9.70;99.90
6954;DHT22;3516;47.980;8.808;2024-02-14T09:24:50;9.50;99.90
6954;DHT22;3516;47.980;8.808;2024-02-14T09:27:17;9.30;99.90
6954;DHT22;3516;47.980;8.808;2024-02-14T09:29:44;9.10;99.90
6954;DHT22;3516;47.980;8.808;2024-02-14T09:32:11;9.10;99.90
6954;DHT22;3516;47.980;8.808;2024-02-14T09:34:38;9.20;99.90
6954;DHT22;3516;47.980;8.808;2024-02-14T09:37:05;9.30;99.90
6954;DHT22;3516;47.980;8.808;2024-02-14T09:39:32;9.30;99.90
6954;DHT22;3516;47.980;8.808;2024-02-14T09:41:58;9.40;99.90
6954;DHT22;3516;47.980;8.808;2024-02-14T09:44:27;9.30;99.90
6954;DHT22;3516;47.980;8.808;2024-02-14T09:46:54;9.30;99.90
6954;DHT22;3516;47.980;8.808;2024-02-14T09:49:22;9.40;99.90
6954;DHT22;3516;47.980;8.808;2024-02-14T09:51:49;9.40;99.90
6954;DHT22;3516;47.980;8.808;2024-02-14T09:54:17;9.50;99.90
6954;DHT22;3516;47.980;8.808;2024-02-14T09:56:43;9.60;99.90
6954;DHT22;3516;47.980;8.808;2024-02-14T09:59:15;9.80;99.90
6954;DHT22;3516;47.980;8.808;2024-02-14T10:01:43;10.10;99.90
6954;DHT22;3516;47.980;8.808;2024-02-14T10:04:09;10.60;99.90
6954;DHT22;3516;47.980;8.808;2024-02-14T10:06:37;10.90;99.90
6954;DHT22;3516;47.980;8.808;2024-02-14T10:09:04;11.10;99.90
6954;DHT22;3516;47.980;8.808;2024-02-14T10:11:30;11.30;99.90
6954;DHT22;3516;47.980;8.808;2024-02-14T10:13:58;11.50;99.90
6954;DHT22;3516;47.980;8.808;2024-02-14T10:16:28;11.50;99.90
6954;DHT22;3516;47.980;8.808;2024-02-14T10:18:54;11.40;99.90
6954;DHT22;3516;47.980;8.808;2024-02-14T10:21:21;11.40;99.90
6954;DHT22;3516;47.980;8.808;2024-02-14T10:23:51;11.40;99.90
6954;DHT22;3516;47.980;8.808;2024-02-14T10:26:18;11.40;99.90
6954;DHT22;3516;47.980;8.808;2024-02-14T10:28:45;11.30;99.90
6954;DHT22;3516;47.980;8.808;2024-02-14T10:31:12;11.10;99.90
6954;DHT22;3516;47.980;8.808;2024-02-14T10:33:38;11.00;99.90
6954;DHT22;3516;47.980;8.808;2024-02-14T10:36:05;10.90;99.90
6954;DHT22;3516;47.980;8.808;2024-02-14T10:38:33;10.80;99.90
6954;DHT22;3516;47.980;8.808;2024-02-14T10:41:02;10.70;99.90
6954;DHT22;3516;47.980;8.808;2024-02-14T10:43:28;10.60;99.90
6954;DHT22;3516;47.980;8.808;2024-02-14T10:45:55;10.60;99.90
6954;DHT22;3516;47.980;8.808;2024-02-14T10:48:23;10.50;99.90
6954;DHT22;3516;47.980;8.808;2024-02-14T10:50:51;10.60;99.90
6954;DHT22;3516;47.980;8.808;2024-02-14T10:53:19;10.60;99.90
6954;DHT22;3516;47.980;8.808;2024-02-14T10:55:47;10.60;99.90
6954;DHT22;3516;47.980;8.808;2024-02-14T10:58:15;10.60;99.90
6954;DHT22;3516;47.980;8.808;2024-02-14T11:00:42;10.60;99.90
6954;DHT22;3516;47.980;8.808;2024-02-14T11:03:09;10.60;99.90
6954;DHT22;3516;47.980;8.808;2024-02-14T11:05:42;10.70;99.90
6954;DHT22;3516;47.980;8.808;2024-02-14T11:08:10;10.70;99.90
6954;DHT22;3516;47.980;8.808;2024-02-14T11:10:39;10.70;99.90
6954;DHT22;3516;47.980;8.808;2024-02-14T11:13:09;10.80;99.90
6954;DHT22;3516;47.980;8.808;2024-02-14T11:15:37;10.80;99.90
6954;DHT22;3516;47.980;8.808;2024-02-14T11:18:05;10.90;99.90
6954;DHT22;3516;47.980;8.808;2024-02-14T11:20:33;10.90;99.90
6954;DHT22;3516;47.980;8.808;2024-02-14T11:23:01;11.00;99.90
6954;DHT22;3516;47.980;8.808;2024-02-14T11:25:28;11.00;99.90
6954;DHT22;3516;47.980;8.808;2024-02-14T11:27:56;11.00;99.90
6954;DHT22;3516;47.980;8.808;2024-02-14T11:30:28;11.00;99.90
6954;DHT22;3516;47.980;8.808;2024-02-14T11:32:56;11.00;99.90
6954;DHT22;3516;47.980;8.808;2024-02-14T11:35:32;11.10;99.90
6954;DHT22;3516;47.980;8.808;2024-02-14T11:37:59;11.10;99.90
6954;DHT22;3516;47.980;8.808;2024-02-14T11:40:25;11.20;99.90
6954;DHT22;3516;47.980;8.808;2024-02-14T11:42:52;11.20;99.90
6954;DHT22;3516;47.980;8.808;2024-02-14T11:45:19;11.20;99.90
6954;DHT22;3516;47.980;8.808;2024-02-14T11:47:46;11.20;99.90
6954;DHT22;3516;47.980;8.808;2024-02-14T11:50:15;11.30;99.90
6954;DHT22;3516;47.980;8.808;2024-02-14T11:52:43;11.30;99.90
6954;DHT22;3516;47.980;8.808;2024-02-14T11:55:10;11.40;99.90
6954;DHT22;3516;47.980;8.808;2024-02-14T11:57:38;11.50;99.90
6954;DHT22;3516;47.980;8.808;2024-02-14T12:00:05;11.60;99.90
6954;DHT22;3516;47.980;8.808;2024-02-14T12:02:32;11.70;99.90
6954;DHT22;3516;47.980;8.808;2024-02-14T12:04:59;11.80;99.90
6954;DHT22;3516;47.980;8.808;2024-02-14T12:07:29;11.90;99.90
6954;DHT22;3516;47.980;8.808;2024-02-14T12:09:56;11.90;99.90
6954;DHT22;3516;47.980;8.808;2024-02-14T12:12:22;11.90;99.90
6954;DHT22;3516;47.980;8.808;2024-02-14T12:14:51;11.90;99.90
6954;DHT22;3516;47.980;8.808;2024-02-14T12:17:17;12.00;99.90
6954;DHT22;3516;47.980;8.808;2024-02-14T12:19:45;12.00;99.90
6954;DHT22;3516;47.980;8.808;2024-02-14T12:22:13;12.00;99.90
6954;DHT22;3516;47.980;8.808;2024-02-14T12:24:44;12.10;99.90
6954;DHT22;3516;47.980;8.808;2024-02-14T12:27:11;12.10;99.90
6954;DHT22;3516;47.980;8.808;2024-02-14T12:29:37;12.10;99.90
6954;DHT22;3516;47.980;8.808;2024-02-14T12:32:05;12.10;99.90
6954;DHT22;3516;47.980;8.808;2024-02-14T12:34:31;12.10;99.90
6954;DHT22;3516;47.980;8.808;2024-02-14T12:36:58;12.10;99.90
6954;DHT22;3516;47.980;8.808;2024-02-14T12:39:25;11.90;99.90
6954;DHT22;3516;47.980;8.808;2024-02-14T12:41:53;11.90;99.90
6954;DHT22;3516;47.980;8.808;2024-02-14T12:44:20;11.90;99.90
6954;DHT22;3516;47.980;8.808;2024-02-14T12:46:46;11.90;99.90
6954;DHT22;3516;47.980;8.808;2024-02-14T12:49:13;11.90;99.90
6954;DHT22;3516;47.980;8.808;2024-02-14T12:51:40;11.90;99.90
6954;DHT22;3516;47.980;8.808;2024-02-14T12:54:07;11.90;99.90
6954;DHT22;3516;47.980;8.808;2024-02-14T12:56:37;12.00;99.90
6954;DHT22;3516;47.980;8.808;2024-02-14T12:59:05;12.00;99.90
6954;DHT22;3516;47.980;8.808;2024-02-14T13:01:32;12.00;99.90
6954;DHT22;3516;47.980;8.808;2024-02-14T13:03:59;12.10;99.90
6954;DHT22;3516;47.980;8.808;2024-02-14T13:06:30;12.00;99.90
6954;DHT22;3516;47.980;8.808;2024-02-14T13:08:57;12.00;99.90
6954;DHT22;3516;47.980;8.808;2024-02-14T13:11:23;12.00;99.90
6954;DHT22;3516;47.980;8.808;2024-02-14T13:13:50;12.00;99.90
6954;DHT22;3516;47.980;8.808;2024-02-14T13:16:18;11.90;99.90
6954;DHT22;3516;47.980;8.808;2024-02-14T13:18:45;12.10;99.90
6954;DHT22;3516;47.980;8.808;2024-02-14T13:21:11;12.10;99.90
6954;DHT22;3516;47.980;8.808;2024-02-14T13:23:38;12.10;99.90
6954;DHT22;3516;47.980;8.808;2024-02-14T13:26:05;12.10;99.90
6954;DHT22;3516;47.980;8.808;2024-02-14T13:28:33;12.10;99.90
6954;DHT22;3516;47.980;8.808;2024-02-14T13:30:59;12.10;99.90
6954;DHT22;3516;47.980;8.808;2024-02-14T13:33:27;12.10;99.90
6954;DHT22;3516;47.980;8.808;2024-02-14T13:35:54;12.10;99.90
6954;DHT22;3516;47.980;8.808;2024-02-14T13:38:20;12.10;99.90
6954;DHT22;3516;47.980;8.808;2024-02-14T13:40:47;12.10;99.90
6954;DHT22;3516;47.980;8.808;2024-02-14T13:43:14;12.10;99.90
6954;DHT22;3516;47.980;8.808;2024-02-14T13:45:42;12.00;99.90
6954;DHT22;3516;47.980;8.808;2024-02-14T13:48:09;12.10;99.90
6954;DHT22;3516;47.980;8.808;2024-02-14T13:50:37;12.00;99.90
6954;DHT22;3516;47.980;8.808;2024-02-14T13:53:04;11.90;99.90
6954;DHT22;3516;47.980;8.808;2024-02-14T13:55:30;11.80;99.90
6954;DHT22;3516;47.980;8.808;2024-02-14T13:57:57;11.80;99.90
6954;DHT22;3516;47.980;8.808;2024-02-14T14:00:24;11.70;99.90
6954;DHT22;3516;47.980;8.808;2024-02-14T14:02:50;11.70;99.90
6954;DHT22;3516;47.980;8.808;2024-02-14T14:05:17;11.70;99.90
6954;DHT22;3516;47.980;8.808;2024-02-14T14:07:45;11.70;99.90
6954;DHT22;3516;47.980;8.808;2024-02-14T14:10:12;11.70;99.90
6954;DHT22;3516;47.980;8.808;2024-02-14T14:12:38;11.70;99.90
6954;DHT22;3516;47.980;8.808;2024-02-14T14:15:05;11.70;99.90
6954;DHT22;3516;47.980;8.808;2024-02-14T14:17:34;11.80;99.90
6954;DHT22;3516;47.980;8.808;2024-02-14T14:20:01;11.80;99.90
6954;DHT22;3516;47.980;8.808;2024-02-14T14:22:29;11.80;99.90
6954;DHT22;3516;47.980;8.808;2024-02-14T14:24:57;11.80;99.90
6954;DHT22;3516;47.980;8.808;2024-02-14T14:27:23;11.80;99.90
6954;DHT22;3516;47.980;8.808;2024-02-14T14:29:50;11.80;99.90
6954;DHT22;3516;47.980;8.808;2024-02-14T14:32:16;11.80;99.90
6954;DHT22;3516;47.980;8.808;2024-02-14T14:34:43;11.80;99.90
6954;DHT22;3516;47.980;8.808;2024-02-14T14:37:09;11.70;99.90
6954;DHT22;3516;47.980;8.808;2024-02-14T14:39:36;11.60;99.90
6954;DHT22;3516;47.980;8.808;2024-02-14T14:42:04;11.60;99.90
6954;DHT22;3516;47.980;8.808;2024-02-14T14:44:32;11.60;99.90
6954;DHT22;3516;47.980;8.808;2024-02-14T14:46:59;11.60;99.90
6954;DHT22;3516;47.980;8.808;2024-02-14T14:49:26;11.60;99.90
6954;DHT22;3516;47.980;8.808;2024-02-14T14:51:52;11.60;99.90
6954;DHT22;3516;47.980;8.808;2024-02-14T14:54:19;11.60;99.90
6954;DHT22;3516;47.980;8.808;2024-02-14T14:56:46;11.60;99.90
6954;DHT22;3516;47.980;8.808;2024-02-14T14:59:14;11.50;99.90
6954;DHT22;3516;47.980;8.808;2024-02-14T15:01:40;11.60;99.90
6954;DHT22;3516;47.980;8.808;2024-02-14T15:04:07;11.50;99.90
6954;DHT22;3516;47.980;8.808;2024-02-14T15:06:33;11.40;99.90
6954;DHT22;3516;47.980;8.808;2024-02-14T15:09:00;11.40;99.90
6954;DHT22;3516;47.980;8.808;2024-02-14T15:11:27;11.30;99.90
6954;DHT22;3516;47.980;8.808;2024-02-14T15:13:54;11.20;99.90
6954;DHT22;3516;47.980;8.808;2024-02-14T15:16:21;11.20;99.90
6954;DHT22;3516;47.980;8.808;2024-02-14T15:18:49;11.20;99.90
6954;DHT22;3516;47.980;8.808;2024-02-14T15:21:15;11.10;99.90
6954;DHT22;3516;47.980;8.808;2024-02-14T15:23:42;11.10;99.90
6954;DHT22;3516;47.980;8.808;2024-02-14T15:26:09;11.00;99.90
6954;DHT22;3516;47.980;8.808;2024-02-14T15:28:38;11.00;99.90
6954;DHT22;3516;47.980;8.808;2024-02-14T15:31:07;10.90;99.90
6954;DHT22;3516;47.980;8.808;2024-02-14T15:33:53;11.00;99.90
6954;DHT22;3516;47.980;8.808;2024-02-14T15:36:21;10.90;99.90
6954;DHT22;3516;47.980;8.808;2024-02-14T15:38:47;10.90;99.90
6954;DHT22;3516;47.980;8.808;2024-02-14T15:41:14;10.80;99.90
6954;DHT22;3516;47.980;8.808;2024-02-14T15:43:41;10.80;99.90
6954;DHT22;3516;47.980;8.808;2024-02-14T15:46:09;10.80;99.90
6954;DHT22;3516;47.980;8.808;2024-02-14T15:48:36;10.80;99.90
6954;DHT22;3516;47.980;8.808;2024-02-14T15:51:04;10.80;99.90
6954;DHT22;3516;47.980;8.808;2024-02-14T15:53:30;10.70;99.90
6954;DHT22;3516;47.980;8.808;2024-02-14T15:55:57;10.70;99.90
6954;DHT22;3516;47.980;8.808;2024-02-14T15:58:24;10.70;99.90
6954;DHT22;3516;47.980;8.808;2024-02-14T16:00:51;10.60;99.90
6954;DHT22;3516;47.980;8.808;2024-02-14T16:03:18;10.60;99.90
6954;DHT22;3516;47.980;8.808;2024-02-14T16:05:44;10.50;99.90
6954;DHT22;3516;47.980;8.808;2024-02-14T16:08:13;10.50;99.90
6954;DHT22;3516;47.980;8.808;2024-02-14T16:10:41;10.40;99.90
6954;DHT22;3516;47.980;8.808;2024-02-14T16:13:07;10.40;99.90
6954;DHT22;3516;47.980;8.808;2024-02-14T16:15:34;10.40;99.90
6954;DHT22;3516;47.980;8.808;2024-02-14T16:18:00;10.40;99.90
6954;DHT22;3516;47.980;8.808;2024-02-14T16:20:27;10.30;99.90
6954;DHT22;3516;47.980;8.808;2024-02-14T16:22:54;10.30;99.90
6954;DHT22;3516;47.980;8.808;2024-02-14T16:25:21;10.30;99.90
6954;DHT22;3516;47.980;8.808;2024-02-14T16:27:48;10.20;99.90
6954;DHT22;3516;47.980;8.808;2024-02-14T16:30:15;10.10;99.90
6954;DHT22;3516;47.980;8.808;2024-02-14T16:32:41;10.10;99.90
6954;DHT22;3516;47.980;8.808;2024-02-14T16:35:09;10.00;99.90
6954;DHT22;3516;47.980;8.808;2024-02-14T16:37:35;10.00;99.90
6954;DHT22;3516;47.980;8.808;2024-02-14T16:40:02;9.90;99.90
6954;DHT22;3516;47.980;8.808;2024-02-14T16:42:31;9.90;99.90
6954;DHT22;3516;47.980;8.808;2024-02-14T16:44:58;9.90;99.90
6954;DHT22;3516;47.980;8.808;2024-02-14T16:47:24;9.80;99.90
6954;DHT22;3516;47.980;8.808;2024-02-14T16:49:51;9.80;99.90
6954;DHT22;3516;47.980;8.808;2024-02-14T16:52:18;9.70;99.90
6954;DHT22;3516;47.980;8.808;2024-02-14T16:54:45;9.60;99.90
6954;DHT22;3516;47.980;8.808;2024-02-14T16:57:11;9.60;99.90
6954;DHT22;3516;47.980;8.808;2024-02-14T16:59:40;9.50;99.90
6954;DHT22;3516;47.980;8.808;2024-02-14T17:02:07;9.50;99.90
6954;DHT22;3516;47.980;8.808;2024-02-14T17:04:33;9.40;99.90
6954;DHT22;3516;47.980;8.808;2024-02-14T17:07:00;9.40;99.90
6954;DHT22;3516;47.980;8.808;2024-02-14T17:09:27;9.30;99.90
6954;DHT22;3516;47.980;8.808;2024-02-14T17:11:53;9.20;99.90
6954;DHT22;3516;47.980;8.808;2024-02-14T17:14:22;9.20;99.90
6954;DHT22;3516;47.980;8.808;2024-02-14T17:16:50;9.10;99.90
6954;DHT22;3516;47.980;8.808;2024-02-14T17:19:20;9.10;99.90
6954;DHT22;3516;47.980;8.808;2024-02-14T17:21:47;9.10;99.90
6954;DHT22;3516;47.980;8.808;2024-02-14T17:24:13;9.00;99.90
6954;DHT22;3516;47.980;8.808;2024-02-14T17:26:40;9.00;99.90
6954;DHT22;3516;47.980;8.808;2024-02-14T17:29:07;9.00;99.90
6954;DHT22;3516;47.980;8.808;2024-02-14T17:31:35;8.90;99.90
6954;DHT22;3516;47.980;8.808;2024-02-14T17:34:04;8.90;99.90
6954;DHT22;3516;47.980;8.808;2024-02-14T17:36:30;8.90;99.90
6954;DHT22;3516;47.980;8.808;2024-02-14T17:38:57;8.80;99.90
6954;DHT22;3516;47.980;8.808;2024-02-14T17:41:24;8.80;99.90
6954;DHT22;3516;47.980;8.808;2024-02-14T17:43:51;8.80;99.90
6954;DHT22;3516;47.980;8.808;2024-02-14T17:46:18;8.80;99.90
6954;DHT22;3516;47.980;8.808;2024-02-14T17:48:44;8.70;99.90
6954;DHT22;3516;47.980;8.808;2024-02-14T17:51:12;8.70;99.90
6954;DHT22;3516;47.980;8.808;2024-02-14T17:53:39;8.60;99.90
6954;DHT22;3516;47.980;8.808;2024-02-14T17:56:06;8.60;99.90
6954;DHT22;3516;47.980;8.808;2024-02-14T17:58:34;8.60;99.90
6954;DHT22;3516;47.980;8.808;2024-02-14T18:01:01;8.50;99.90
6954;DHT22;3516;47.980;8.808;2024-02-14T18:03:28;8.50;99.90
6954;DHT22;3516;47.980;8.808;2024-02-14T18:05:55;8.50;99.90
6954;DHT22;3516;47.980;8.808;2024-02-14T18:08:23;8.40;99.90
6954;DHT22;3516;47.980;8.808;2024-02-14T18:10:49;8.40;99.90
6954;DHT22;3516;47.980;8.808;2024-02-14T18:13:17;8.40;99.90
6954;DHT22;3516;47.980;8.808;2024-02-14T18:15:44;8.30;99.90
6954;DHT22;3516;47.980;8.808;2024-02-14T18:18:11;8.30;99.90
6954;DHT22;3516;47.980;8.808;2024-02-14T18:20:38;8.30;99.90
6954;DHT22;3516;47.980;8.808;2024-02-14T18:23:04;8.20;99.90
6954;DHT22;3516;47.980;8.808;2024-02-14T18:25:32;8.20;99.90
6954;DHT22;3516;47.980;8.808;2024-02-14T18:27:59;8.20;99.90
6954;DHT22;3516;47.980;8.808;2024-02-14T18:30:26;8.20;99.90
6954;DHT22;3516;47.980;8.808;2024-02-14T18:32:54;8.20;99.90
6954;DHT22;3516;47.980;8.808;2024-02-14T18:35:21;8.10;99.90
6954;DHT22;3516;47.980;8.808;2024-02-14T18:37:47;8.10;99.90
6954;DHT22;3516;47.980;8.808;2024-02-14T18:40:14;8.10;99.90
6954;DHT22;3516;47.980;8.808;2024-02-14T18:42:42;8.10;99.90
6954;DHT22;3516;47.980;8.808;2024-02-14T18:45:09;8.10;99.90
6954;DHT22;3516;47.980;8.808;2024-02-14T18:47:36;8.10;99.90
6954;DHT22;3516;47.980;8.808;2024-02-14T18:50:02;8.10;99.90
6954;DHT22;3516;47.980;8.808;2024-02-14T18:52:29;8.10;99.90
6954;DHT22;3516;47.980;8.808;2024-02-14T18:54:56;8.00;99.90
6954;DHT22;3516;47.980;8.808;2024-02-14T18:57:22;8.10;99.90
6954;DHT22;3516;47.980;8.808;2024-02-14T18:59:50;8.00;99.90
6954;DHT22;3516;47.980;8.808;2024-02-14T19:02:18;8.00;99.90
6954;DHT22;3516;47.980;8.808;2024-02-14T19:04:46;8.00;99.90
6954;DHT22;3516;47.980;8.808;2024-02-14T19:07:13;8.00;99.90
6954;DHT22;3516;47.980;8.808;2024-02-14T19:09:40;8.00;99.90
6954;DHT22;3516;47.980;8.808;2024-02-14T19:12:06;7.90;99.90
6954;DHT22;3516;47.980;8.808;2024-02-14T19:14:33;7.90;99.90
6954;DHT22;3516;47.980;8.808;2024-02-14T19:17:01;7.90;99.90
6954;DHT22;3516;47.980;8.808;2024-02-14T19:19:28;7.90;99.90
6954;DHT22;3516;47.980;8.808;2024-02-14T19:21:56;7.90;99.90
6954;DHT22;3516;47.980;8.808;2024-02-14T19:24:23;7.90;99.90
6954;DHT22;3516;47.980;8.808;2024-02-14T19:26:49;7.80;99.90
6954;DHT22;3516;47.980;8.808;2024-02-14T19:29:16;7.80;99.90
6954;DHT22;3516;47.980;8.808;2024-02-14T19:31:44;7.80;99.90
6954;DHT22;3516;47.980;8.808;2024-02-14T19:34:12;7.80;99.90
6954;DHT22;3516;47.980;8.808;2024-02-14T19:36:38;7.80;99.90
6954;DHT22;3516;47.980;8.808;2024-02-14T19:39:05;7.70;99.90
6954;DHT22;3516;47.980;8.808;2024-02-14T19:41:32;7.70;99.90
6954;DHT22;3516;47.980;8.808;2024-02-14T19:43:58;7.70;99.90
6954;DHT22;3516;47.980;8.808;2024-02-14T19:46:25;7.70;99.90
6954;DHT22;3516;47.980;8.808;2024-02-14T19:48:51;7.70;99.90
6954;DHT22;3516;47.980;8.808;2024-02-14T19:51:20;7.70;99.90
6954;DHT22;3516;47.980;8.808;2024-02-14T19:53:47;7.70;99.90
6954;DHT22;3516;47.980;8.808;2024-02-14T19:56:14;7.70;99.90
6954;DHT22;3516;47.980;8.808;2024-02-14T19:58:41;7.60;99.90
6954;DHT22;3516;47.980;8.808;2024-02-14T20:01:07;7.60;99.90
6954;DHT22;3516;47.980;8.808;2024-02-14T20:03:34;7.60;99.90
6954;DHT22;3516;47.980;8.808;2024-02-14T20:06:02;7.60;99.90
6954;DHT22;3516;47.980;8.808;2024-02-14T20:08:31;7.60;99.90
6954;DHT22;3516;47.980;8.808;2024-02-14T20:10:58;7.60;99.90
6954;DHT22;3516;47.980;8.808;2024-02-14T20:13:25;7.60;99.90
6954;DHT22;3516;47.980;8.808;2024-02-14T20:15:52;7.60;99.90
6954;DHT22;3516;47.980;8.808;2024-02-14T20:18:19;7.60;99.90
6954;DHT22;3516;47.980;8.808;2024-02-14T20:20:45;7.50;99.90
6954;DHT22;3516;47.980;8.808;2024-02-14T20:23:12;7.50;99.90
6954;DHT22;3516;47.980;8.808;2024-02-14T20:25:40;7.50;99.90
6954;DHT22;3516;47.980;8.808;2024-02-14T20:28:07;7.50;99.90
6954;DHT22;3516;47.980;8.808;2024-02-14T20:30:33;7.50;99.90
6954;DHT22;3516;47.980;8.808;2024-02-14T20:33:00;7.50;99.90
6954;DHT22;3516;47.980;8.808;2024-02-14T20:35:26;7.50;99.90
6954;DHT22;3516;47.980;8.808;2024-02-14T20:37:54;7.50;99.90
6954;DHT22;3516;47.980;8.808;2024-02-14T20:40:21;7.50;99.90
6954;DHT22;3516;47.980;8.808;2024-02-14T20:42:49;7.40;99.90
6954;DHT22;3516;47.980;8.808;2024-02-14T20:45:16;7.50;99.90
6954;DHT22;3516;47.980;8.808;2024-02-14T20:47:43;7.50;99.90
6954;DHT22;3516;47.980;8.808;2024-02-14T20:50:10;7.40;99.90
6954;DHT22;3516;47.980;8.808;2024-02-14T20:52:36;7.40;99.90
6954;DHT22;3516;47.980;8.808;2024-02-14T20:55:03;7.40;99.90
6954;DHT22;3516;47.980;8.808;2024-02-14T20:57:30;7.40;99.90
6954;DHT22;3516;47.980;8.808;2024-02-14T20:59:59;7.40;99.90
6954;DHT22;3516;47.980;8.808;2024-02-14T21:02:26;7.50;99.90
6954;DHT22;3516;47.980;8.808;2024-02-14T21:04:53;7.40;99.90
6954;DHT22;3516;47.980;8.808;2024-02-14T21:07:19;7.40;99.90
6954;DHT22;3516;47.980;8.808;2024-02-14T21:09:46;7.40;99.90
6954;DHT22;3516;47.980;8.808;2024-02-14T21:12:13;7.40;99.90
6954;DHT22;3516;47.980;8.808;2024-02-14T21:14:40;7.40;99.90
6954;DHT22;3516;47.980;8.808;2024-02-14T21:17:08;7.40;99.90
6954;DHT22;3516;47.980;8.808;2024-02-14T21:19:34;7.30;99.90
6954;DHT22;3516;47.980;8.808;2024-02-14T21:22:01;7.30;99.90
6954;DHT22;3516;47.980;8.808;2024-02-14T21:24:27;7.30;99.90
6954;DHT22;3516;47.980;8.808;2024-02-14T21:26:54;7.30;99.90
6954;DHT22;3516;47.980;8.808;2024-02-14T21:29:22;7.30;99.90
6954;DHT22;3516;47.980;8.808;2024-02-14T21:31:48;7.30;99.90
6954;DHT22;3516;47.980;8.808;2024-02-14T21:34:16;7.30;99.90
6954;DHT22;3516;47.980;8.808;2024-02-14T21:36:43;7.30;99.90
